sensor_id;sensor_type;location;lat;lon;timestamp;pressure;altitude;pressure_sealevel;temperature;humidity
54290;BME280;40196;39.774;2.728;2022-08-21T00:01:14;101210.81;;;26.80;49.55
54290;BME280;40196;39.774;2.728;2022-08-21T00:03:40;101209.66;;;26.88;48.85
54290;BME280;40196;39.774;2.728;2022-08-21T00:06:06;101205.44;;;26.92;48.68
54290;BME280;40196;39.774;2.728;2022-08-21T00:08:31;101208.38;;;26.90;48.55
54290;BME280;40196;39.774;2.728;2022-08-21T00:10:57;101208.38;;;26.90;49.19
54290;BME280;40196;39.774;2.728;2022-08-21T00:13:22;101203.41;;;25.95;51.16
54290;BME280;40196;39.774;2.728;2022-08-21T00:15:48;101196.19;;;25.38;51.83
54290;BME280;40196;39.774;2.728;2022-08-21T00:18:13;101200.38;;;25.85;51.57
54290;BME280;40196;39.774;2.728;2022-08-21T00:20:39;101192.84;;;26.12;51.07
54290;BME280;40196;39.774;2.728;2022-08-21T00:23:05;101190.84;;;26.26;50.52
54290;BME280;40196;39.774;2.728;2022-08-21T00:25:31;101189.94;;;26.32;50.43
54290;BME280;40196;39.774;2.728;2022-08-21T00:27:57;101190.44;;;26.22;50.68
54290;BME280;40196;39.774;2.728;2022-08-21T00:30:23;101189.94;;;26.32;50.38
54290;BME280;40196;39.774;2.728;2022-08-21T00:32:50;101189.88;;;26.39;50.09
54290;BME280;40196;39.774;2.728;2022-08-21T00:35:16;101188.88;;;26.14;50.77
54290;BME280;40196;39.774;2.728;2022-08-21T00:37:42;101191.66;;;25.83;51.80
54290;BME280;40196;39.774;2.728;2022-08-21T00:40:10;101197.00;;;25.89;51.86
54290;BME280;40196;39.774;2.728;2022-08-21T00:42:35;101188.75;;;26.09;50.73
54290;BME280;40196;39.774;2.728;2022-08-21T00:45:03;101180.75;;;26.14;50.57
54290;BME280;40196;39.774;2.728;2022-08-21T00:47:28;101179.84;;;26.02;50.70
54290;BME280;40196;39.774;2.728;2022-08-21T00:49:54;101185.13;;;26.15;50.55
54290;BME280;40196;39.774;2.728;2022-08-21T00:52:21;101196.16;;;26.14;50.66
54290;BME280;40196;39.774;2.728;2022-08-21T00:54:47;101177.41;;;26.19;50.78
54290;BME280;40196;39.774;2.728;2022-08-21T00:57:26;101179.25;;;26.19;50.36
54290;BME280;40196;39.774;2.728;2022-08-21T00:59:54;101169.81;;;26.09;50.63
54290;BME280;40196;39.774;2.728;2022-08-21T01:02:21;101165.09;;;25.29;53.15
54290;BME280;40196;39.774;2.728;2022-08-21T01:04:46;101169.19;;;25.64;52.62
54290;BME280;40196;39.774;2.728;2022-08-21T01:07:12;101169.75;;;25.72;52.40
54290;BME280;40196;39.774;2.728;2022-08-21T01:09:37;101158.41;;;25.82;51.57
54290;BME280;40196;39.774;2.728;2022-08-21T01:12:03;101161.72;;;25.84;51.90
54290;BME280;40196;39.774;2.728;2022-08-21T01:14:29;101168.97;;;25.84;51.53
54290;BME280;40196;39.774;2.728;2022-08-21T01:16:55;101167.94;;;25.85;51.57
54290;BME280;40196;39.774;2.728;2022-08-21T01:19:21;101170.19;;;25.88;51.76
54290;BME280;40196;39.774;2.728;2022-08-21T01:21:47;101170.19;;;25.88;51.51
54290;BME280;40196;39.774;2.728;2022-08-21T01:24:13;101171.03;;;25.88;51.24
54290;BME280;40196;39.774;2.728;2022-08-21T01:26:39;101173.94;;;25.87;50.55
54290;BME280;40196;39.774;2.728;2022-08-21T01:29:06;101173.03;;;25.74;50.99
54290;BME280;40196;39.774;2.728;2022-08-21T01:31:33;101156.69;;;25.44;51.58
54290;BME280;40196;39.774;2.728;2022-08-21T01:33:59;101162.75;;;25.65;51.98
54290;BME280;40196;39.774;2.728;2022-08-21T01:36:24;101170.59;;;25.66;52.01
54290;BME280;40196;39.774;2.728;2022-08-21T01:38:50;101170.56;;;25.73;51.70
54290;BME280;40196;39.774;2.728;2022-08-21T01:41:15;101170.34;;;25.74;51.30
54290;BME280;40196;39.774;2.728;2022-08-21T01:43:41;101162.00;;;25.76;51.31
54290;BME280;40196;39.774;2.728;2022-08-21T01:46:07;101153.47;;;25.54;51.63
54290;BME280;40196;39.774;2.728;2022-08-21T01:48:33;101142.28;;;25.50;51.25
54290;BME280;40196;39.774;2.728;2022-08-21T01:50:58;101149.88;;;25.60;51.67
54290;BME280;40196;39.774;2.728;2022-08-21T01:53:24;101146.16;;;25.61;51.16
54290;BME280;40196;39.774;2.728;2022-08-21T01:55:49;101148.47;;;25.57;51.35
54290;BME280;40196;39.774;2.728;2022-08-21T01:58:14;101151.88;;;25.46;51.62
54290;BME280;40196;39.774;2.728;2022-08-21T02:00:40;101156.06;;;25.42;51.83
54290;BME280;40196;39.774;2.728;2022-08-21T02:03:05;101155.47;;;25.40;51.78
54290;BME280;40196;39.774;2.728;2022-08-21T02:05:30;101164.56;;;25.46;51.36
54290;BME280;40196;39.774;2.728;2022-08-21T02:07:56;101167.78;;;25.29;51.36
54290;BME280;40196;39.774;2.728;2022-08-21T02:10:23;101169.22;;;24.62;54.11
54290;BME280;40196;39.774;2.728;2022-08-21T02:12:49;101165.81;;;24.79;53.78
54290;BME280;40196;39.774;2.728;2022-08-21T02:15:15;101165.50;;;24.94;53.00
54290;BME280;40196;39.774;2.728;2022-08-21T02:17:41;101166.47;;;25.07;52.46
54290;BME280;40196;39.774;2.728;2022-08-21T02:20:07;101154.03;;;25.06;52.38
54290;BME280;40196;39.774;2.728;2022-08-21T02:22:33;101153.75;;;25.14;52.28
54290;BME280;40196;39.774;2.728;2022-08-21T02:24:58;101157.91;;;25.16;51.84
54290;BME280;40196;39.774;2.728;2022-08-21T02:27:24;101150.69;;;25.10;52.21
54290;BME280;40196;39.774;2.728;2022-08-21T02:29:50;101149.81;;;25.16;52.17
54290;BME280;40196;39.774;2.728;2022-08-21T02:32:15;101143.34;;;25.17;51.71
54290;BME280;40196;39.774;2.728;2022-08-21T02:34:40;101136.13;;;25.11;51.70
54290;BME280;40196;39.774;2.728;2022-08-21T02:37:06;101147.38;;;25.08;52.24
54290;BME280;40196;39.774;2.728;2022-08-21T02:39:31;101147.72;;;24.87;52.98
54290;BME280;40196;39.774;2.728;2022-08-21T02:41:56;101153.06;;;24.93;52.59
54290;BME280;40196;39.774;2.728;2022-08-21T02:44:22;101152.13;;;24.74;53.24
54290;BME280;40196;39.774;2.728;2022-08-21T02:46:47;101160.94;;;24.56;54.18
54290;BME280;40196;39.774;2.728;2022-08-21T02:49:12;101162.09;;;24.74;53.59
54290;BME280;40196;39.774;2.728;2022-08-21T02:51:38;101165.38;;;24.83;53.10
54290;BME280;40196;39.774;2.728;2022-08-21T02:54:03;101164.88;;;24.92;52.84
54290;BME280;40196;39.774;2.728;2022-08-21T02:56:28;101171.38;;;24.33;52.55
54290;BME280;40196;39.774;2.728;2022-08-21T02:58:54;101175.41;;;24.69;53.16
54290;BME280;40196;39.774;2.728;2022-08-21T03:01:19;101171.63;;;24.83;52.93
54290;BME280;40196;39.774;2.728;2022-08-21T03:03:45;101175.31;;;24.89;52.14
54290;BME280;40196;39.774;2.728;2022-08-21T03:06:12;101179.44;;;24.91;52.04
54290;BME280;40196;39.774;2.728;2022-08-21T03:08:38;101180.25;;;24.92;51.67
54290;BME280;40196;39.774;2.728;2022-08-21T03:11:04;101178.00;;;24.89;51.58
54290;BME280;40196;39.774;2.728;2022-08-21T03:13:29;101176.44;;;23.96;54.85
54290;BME280;40196;39.774;2.728;2022-08-21T03:15:55;101180.94;;;24.22;53.98
54290;BME280;40196;39.774;2.728;2022-08-21T03:18:21;101188.34;;;24.47;53.71
54290;BME280;40196;39.774;2.728;2022-08-21T03:20:47;101178.16;;;24.62;53.20
54290;BME280;40196;39.774;2.728;2022-08-21T03:23:13;101180.59;;;24.70;52.83
54290;BME280;40196;39.774;2.728;2022-08-21T03:25:39;101178.09;;;24.75;52.45
54290;BME280;40196;39.774;2.728;2022-08-21T03:28:05;101181.41;;;24.71;52.26
54290;BME280;40196;39.774;2.728;2022-08-21T03:30:31;101185.38;;;24.68;52.60
54290;BME280;40196;39.774;2.728;2022-08-21T03:32:57;101175.19;;;24.70;52.86
54290;BME280;40196;39.774;2.728;2022-08-21T03:35:23;101163.75;;;24.75;52.30
54290;BME280;40196;39.774;2.728;2022-08-21T03:37:49;101162.31;;;24.79;52.33
54290;BME280;40196;39.774;2.728;2022-08-21T03:40:16;101155.09;;;24.66;52.39
54290;BME280;40196;39.774;2.728;2022-08-21T03:42:41;101154.84;;;24.74;52.26
54290;BME280;40196;39.774;2.728;2022-08-21T03:45:07;101161.50;;;24.72;52.67
54290;BME280;40196;39.774;2.728;2022-08-21T03:47:32;101156.72;;;24.67;52.37
54290;BME280;40196;39.774;2.728;2022-08-21T03:49:58;101158.47;;;24.55;52.43
54290;BME280;40196;39.774;2.728;2022-08-21T03:52:24;101150.97;;;24.57;52.07
54290;BME280;40196;39.774;2.728;2022-08-21T03:54:49;101156.50;;;24.10;54.11
54290;BME280;40196;39.774;2.728;2022-08-21T03:57:15;101154.28;;;23.74;54.94
54290;BME280;40196;39.774;2.728;2022-08-21T03:59:40;101144.56;;;23.66;54.26
54290;BME280;40196;39.774;2.728;2022-08-21T04:02:07;101147.25;;;23.86;54.77
54290;BME280;40196;39.774;2.728;2022-08-21T04:04:33;101142.41;;;24.08;54.21
54290;BME280;40196;39.774;2.728;2022-08-21T04:06:59;101141.56;;;24.21;53.79
54290;BME280;40196;39.774;2.728;2022-08-21T04:09:25;101149.00;;;24.26;53.07
54290;BME280;40196;39.774;2.728;2022-08-21T04:11:50;101149.63;;;24.34;52.63
54290;BME280;40196;39.774;2.728;2022-08-21T04:14:16;101149.00;;;24.32;52.67
54290;BME280;40196;39.774;2.728;2022-08-21T04:16:42;101155.81;;;24.35;52.38
54290;BME280;40196;39.774;2.728;2022-08-21T04:19:08;101153.78;;;24.30;52.98
54290;BME280;40196;39.774;2.728;2022-08-21T04:21:34;101157.50;;;24.29;53.48
54290;BME280;40196;39.774;2.728;2022-08-21T04:24:00;101152.00;;;23.97;53.89
54290;BME280;40196;39.774;2.728;2022-08-21T04:26:25;101152.75;;;24.25;53.46
54290;BME280;40196;39.774;2.728;2022-08-21T04:28:51;101153.13;;;24.28;53.65
54290;BME280;40196;39.774;2.728;2022-08-21T04:31:17;101153.56;;;24.25;53.30
54290;BME280;40196;39.774;2.728;2022-08-21T04:33:43;101156.22;;;24.32;52.88
54290;BME280;40196;39.774;2.728;2022-08-21T04:36:09;101156.84;;;24.34;52.86
54290;BME280;40196;39.774;2.728;2022-08-21T04:38:35;101159.53;;;24.34;52.83
54290;BME280;40196;39.774;2.728;2022-08-21T04:41:00;101169.75;;;24.25;52.73
54290;BME280;40196;39.774;2.728;2022-08-21T04:43:26;101165.38;;;24.24;52.76
54290;BME280;40196;39.774;2.728;2022-08-21T04:45:51;101161.09;;;24.10;53.13
54290;BME280;40196;39.774;2.728;2022-08-21T04:48:18;101154.22;;;24.14;53.76
54290;BME280;40196;39.774;2.728;2022-08-21T04:53:14;101157.34;;;24.17;53.82
54290;BME280;40196;39.774;2.728;2022-08-21T04:55:41;101150.25;;;24.23;53.37
54290;BME280;40196;39.774;2.728;2022-08-21T04:58:07;101155.03;;;24.21;53.82
54290;BME280;40196;39.774;2.728;2022-08-21T05:00:33;101149.25;;;24.17;53.35
54290;BME280;40196;39.774;2.728;2022-08-21T05:02:59;101149.84;;;24.19;53.98
54290;BME280;40196;39.774;2.728;2022-08-21T05:05:25;101157.53;;;24.16;53.56
54290;BME280;40196;39.774;2.728;2022-08-21T05:07:51;101147.63;;;23.96;53.48
54290;BME280;40196;39.774;2.728;2022-08-21T05:10:17;101158.34;;;24.16;53.44
54290;BME280;40196;39.774;2.728;2022-08-21T05:12:42;101158.75;;;24.20;53.77
54290;BME280;40196;39.774;2.728;2022-08-21T05:15:09;101152.75;;;24.18;54.14
54290;BME280;40196;39.774;2.728;2022-08-21T05:17:34;101145.94;;;24.15;53.97
54290;BME280;40196;39.774;2.728;2022-08-21T05:20:00;101136.41;;;24.13;53.75
54290;BME280;40196;39.774;2.728;2022-08-21T05:22:26;101143.66;;;24.19;53.92
54290;BME280;40196;39.774;2.728;2022-08-21T05:24:52;101136.34;;;24.26;53.72
54290;BME280;40196;39.774;2.728;2022-08-21T05:27:17;101136.34;;;24.26;53.72
54290;BME280;40196;39.774;2.728;2022-08-21T05:29:43;101130.19;;;24.19;53.76
54290;BME280;40196;39.774;2.728;2022-08-21T05:32:11;101146.50;;;24.24;53.84
54290;BME280;40196;39.774;2.728;2022-08-21T05:34:37;101152.53;;;24.26;54.23
54290;BME280;40196;39.774;2.728;2022-08-21T05:37:03;101141.44;;;23.89;55.55
54290;BME280;40196;39.774;2.728;2022-08-21T05:39:29;101151.38;;;23.95;55.17
54290;BME280;40196;39.774;2.728;2022-08-21T05:41:54;101151.31;;;24.09;55.17
54290;BME280;40196;39.774;2.728;2022-08-21T05:44:20;101146.97;;;24.14;54.18
54290;BME280;40196;39.774;2.728;2022-08-21T05:46:46;101146.75;;;24.16;54.59
54290;BME280;40196;39.774;2.728;2022-08-21T05:49:11;101136.59;;;24.25;54.52
54290;BME280;40196;39.774;2.728;2022-08-21T05:51:37;101141.53;;;24.28;54.38
54290;BME280;40196;39.774;2.728;2022-08-21T05:54:04;101134.50;;;24.27;54.36
54290;BME280;40196;39.774;2.728;2022-08-21T05:56:29;101131.56;;;24.28;53.90
54290;BME280;40196;39.774;2.728;2022-08-21T05:58:54;101123.31;;;24.23;53.55
54290;BME280;40196;39.774;2.728;2022-08-21T06:01:20;101132.28;;;23.97;55.04
54290;BME280;40196;39.774;2.728;2022-08-21T06:03:46;101133.31;;;24.09;54.97
54290;BME280;40196;39.774;2.728;2022-08-21T06:06:11;101131.41;;;24.16;54.30
54290;BME280;40196;39.774;2.728;2022-08-21T06:08:36;101136.28;;;23.61;56.38
54290;BME280;40196;39.774;2.728;2022-08-21T06:11:02;101133.78;;;23.86;55.66
54290;BME280;40196;39.774;2.728;2022-08-21T06:13:28;101144.28;;;24.01;55.96
54290;BME280;40196;39.774;2.728;2022-08-21T06:16:04;101148.22;;;24.12;55.56
54290;BME280;40196;39.774;2.728;2022-08-21T06:18:30;101152.97;;;24.23;55.63
54290;BME280;40196;39.774;2.728;2022-08-21T06:20:55;101146.09;;;24.27;55.59
54290;BME280;40196;39.774;2.728;2022-08-21T06:23:20;101139.03;;;24.33;55.38
54290;BME280;40196;39.774;2.728;2022-08-21T06:25:45;101147.53;;;24.30;54.93
54290;BME280;40196;39.774;2.728;2022-08-21T06:28:11;101145.44;;;24.38;55.53
54290;BME280;40196;39.774;2.728;2022-08-21T06:30:37;101147.94;;;24.40;55.04
54290;BME280;40196;39.774;2.728;2022-08-21T06:33:03;101148.72;;;24.47;55.11
54290;BME280;40196;39.774;2.728;2022-08-21T06:35:29;101144.59;;;24.45;55.25
54290;BME280;40196;39.774;2.728;2022-08-21T06:37:55;101142.31;;;24.41;55.08
54290;BME280;40196;39.774;2.728;2022-08-21T06:40:20;101147.28;;;24.45;55.04
54290;BME280;40196;39.774;2.728;2022-08-21T06:42:46;101133.16;;;24.49;55.19
54290;BME280;40196;39.774;2.728;2022-08-21T06:45:11;101140.69;;;24.34;54.91
54290;BME280;40196;39.774;2.728;2022-08-21T06:47:36;101135.38;;;24.14;55.14
54290;BME280;40196;39.774;2.728;2022-08-21T06:50:02;101134.44;;;24.40;55.85
54290;BME280;40196;39.774;2.728;2022-08-21T06:52:28;101126.28;;;24.60;55.23
54290;BME280;40196;39.774;2.728;2022-08-21T06:54:54;101129.66;;;24.42;55.00
54290;BME280;40196;39.774;2.728;2022-08-21T06:57:19;101117.34;;;24.66;53.94
54290;BME280;40196;39.774;2.728;2022-08-21T06:59:44;101108.56;;;24.77;52.00
54290;BME280;40196;39.774;2.728;2022-08-21T07:02:10;101103.84;;;24.98;54.21
54290;BME280;40196;39.774;2.728;2022-08-21T07:04:35;101101.84;;;25.12;51.22
54290;BME280;40196;39.774;2.728;2022-08-21T07:07:00;101107.78;;;25.27;49.44
54290;BME280;40196;39.774;2.728;2022-08-21T07:09:26;101118.56;;;25.34;47.70
54290;BME280;40196;39.774;2.728;2022-08-21T07:11:52;101104.34;;;25.45;48.98
54290;BME280;40196;39.774;2.728;2022-08-21T07:14:18;101111.56;;;25.70;47.97
54290;BME280;40196;39.774;2.728;2022-08-21T07:16:43;101114.94;;;25.84;46.39
54290;BME280;40196;39.774;2.728;2022-08-21T07:19:09;101113.63;;;25.93;46.53
54290;BME280;40196;39.774;2.728;2022-08-21T07:21:34;101113.09;;;26.03;47.03
54290;BME280;40196;39.774;2.728;2022-08-21T07:23:59;101112.34;;;26.14;45.69
54290;BME280;40196;39.774;2.728;2022-08-21T07:26:25;101117.00;;;26.25;47.25
54290;BME280;40196;39.774;2.728;2022-08-21T07:28:51;101114.81;;;26.34;47.34
54290;BME280;40196;39.774;2.728;2022-08-21T07:31:17;101118.63;;;26.45;46.71
54290;BME280;40196;39.774;2.728;2022-08-21T07:33:43;101120.03;;;26.47;45.56
54290;BME280;40196;39.774;2.728;2022-08-21T07:36:08;101125.09;;;26.62;46.47
54290;BME280;40196;39.774;2.728;2022-08-21T07:38:34;101122.19;;;26.75;45.74
54290;BME280;40196;39.774;2.728;2022-08-21T07:41:00;101124.44;;;26.79;44.74
54290;BME280;40196;39.774;2.728;2022-08-21T07:43:26;101118.97;;;26.97;44.25
54290;BME280;40196;39.774;2.728;2022-08-21T07:45:51;101107.56;;;27.07;43.61
54290;BME280;40196;39.774;2.728;2022-08-21T07:48:18;101113.22;;;27.17;43.60
54290;BME280;40196;39.774;2.728;2022-08-21T07:50:44;101104.31;;;27.28;43.02
54290;BME280;40196;39.774;2.728;2022-08-21T07:53:09;101108.09;;;27.39;42.25
54290;BME280;40196;39.774;2.728;2022-08-21T07:55:35;101107.41;;;27.44;42.73
54290;BME280;40196;39.774;2.728;2022-08-21T07:58:00;101113.28;;;27.52;42.19
54290;BME280;40196;39.774;2.728;2022-08-21T08:00:26;101106.44;;;27.62;39.39
54290;BME280;40196;39.774;2.728;2022-08-21T08:02:53;101105.13;;;27.76;38.40
54290;BME280;40196;39.774;2.728;2022-08-21T08:05:20;101100.19;;;27.85;37.07
54290;BME280;40196;39.774;2.728;2022-08-21T08:07:46;101097.13;;;27.93;38.08
54290;BME280;40196;39.774;2.728;2022-08-21T08:10:12;101099.22;;;28.03;37.24
54290;BME280;40196;39.774;2.728;2022-08-21T08:12:39;101097.53;;;28.13;36.42
54290;BME280;40196;39.774;2.728;2022-08-21T08:15:05;101092.31;;;28.24;35.91
54290;BME280;40196;39.774;2.728;2022-08-21T08:17:32;101092.19;;;28.30;35.54
54290;BME280;40196;39.774;2.728;2022-08-21T08:19:58;101098.63;;;28.41;35.72
54290;BME280;40196;39.774;2.728;2022-08-21T08:22:26;101093.28;;;28.46;35.86
54290;BME280;40196;39.774;2.728;2022-08-21T08:24:52;101099.19;;;28.55;35.11
54290;BME280;40196;39.774;2.728;2022-08-21T08:27:18;101096.31;;;28.62;35.22
54290;BME280;40196;39.774;2.728;2022-08-21T08:29:44;101098.63;;;28.70;33.69
54290;BME280;40196;39.774;2.728;2022-08-21T08:32:09;101086.94;;;28.69;34.71
54290;BME280;40196;39.774;2.728;2022-08-21T08:34:35;101084.91;;;28.77;34.42
54290;BME280;40196;39.774;2.728;2022-08-21T08:37:01;101078.41;;;28.78;32.38
54290;BME280;40196;39.774;2.728;2022-08-21T08:39:28;101084.03;;;28.88;33.63
54290;BME280;40196;39.774;2.728;2022-08-21T08:41:59;101078.66;;;28.93;32.31
54290;BME280;40196;39.774;2.728;2022-08-21T08:44:27;101080.00;;;29.07;32.71
54290;BME280;40196;39.774;2.728;2022-08-21T08:46:52;101082.31;;;29.16;32.60
54290;BME280;40196;39.774;2.728;2022-08-21T08:51:47;101081.41;;;29.27;32.19
54290;BME280;40196;39.774;2.728;2022-08-21T08:54:28;101075.31;;;29.37;33.17
54290;BME280;40196;39.774;2.728;2022-08-21T08:56:58;101076.78;;;29.44;34.11
54290;BME280;40196;39.774;2.728;2022-08-21T08:59:26;101074.06;;;29.44;35.64
54290;BME280;40196;39.774;2.728;2022-08-21T09:01:53;101070.44;;;29.56;35.98
54290;BME280;40196;39.774;2.728;2022-08-21T09:04:21;101075.34;;;29.59;36.54
54290;BME280;40196;39.774;2.728;2022-08-21T09:22:50;101068.44;;;30.12;38.14
54290;BME280;40196;39.774;2.728;2022-08-21T09:25:25;101065.56;;;30.24;38.15
54290;BME280;40196;39.774;2.728;2022-08-21T09:27:51;101064.16;;;30.21;35.90
54290;BME280;40196;39.774;2.728;2022-08-21T09:30:17;101066.72;;;30.28;36.06
54290;BME280;40196;39.774;2.728;2022-08-21T09:32:43;101061.66;;;30.37;35.42
54290;BME280;40196;39.774;2.728;2022-08-21T09:35:12;101058.16;;;30.41;37.05
54290;BME280;40196;39.774;2.728;2022-08-21T09:37:53;101058.97;;;30.42;37.49
54290;BME280;40196;39.774;2.728;2022-08-21T09:42:53;101048.50;;;30.56;37.48
54290;BME280;40196;39.774;2.728;2022-08-21T09:45:18;101037.91;;;30.59;36.63
54290;BME280;40196;39.774;2.728;2022-08-21T09:47:44;101039.09;;;30.69;36.90
54290;BME280;40196;39.774;2.728;2022-08-21T09:50:12;101041.53;;;30.70;37.34
54290;BME280;40196;39.774;2.728;2022-08-21T09:52:48;101039.44;;;30.77;37.50
54290;BME280;40196;39.774;2.728;2022-08-21T09:55:19;101043.56;;;30.85;36.42
54290;BME280;40196;39.774;2.728;2022-08-21T09:58:04;101040.41;;;30.93;37.03
54290;BME280;40196;39.774;2.728;2022-08-21T10:00:30;101034.94;;;30.93;36.57
54290;BME280;40196;39.774;2.728;2022-08-21T10:03:09;101046.22;;;31.07;36.60
54290;BME280;40196;39.774;2.728;2022-08-21T10:05:36;101054.16;;;31.14;37.42
54290;BME280;40196;39.774;2.728;2022-08-21T10:08:02;101048.22;;;31.22;37.64
54290;BME280;40196;39.774;2.728;2022-08-21T10:10:29;101048.28;;;31.32;36.70
54290;BME280;40196;39.774;2.728;2022-08-21T10:13:40;101048.28;;;31.32;36.93
54290;BME280;40196;39.774;2.728;2022-08-21T10:18:25;101055.94;;;31.40;36.06
54290;BME280;40196;39.774;2.728;2022-08-21T10:36:52;101053.19;;;31.83;35.39
54290;BME280;40196;39.774;2.728;2022-08-21T10:39:29;101049.94;;;31.86;34.62
54290;BME280;40196;39.774;2.728;2022-08-21T10:42:21;101050.78;;;31.92;35.99
54290;BME280;40196;39.774;2.728;2022-08-21T10:55:16;101047.88;;;32.14;35.15
54290;BME280;40196;39.774;2.728;2022-08-21T10:58:17;101050.84;;;32.12;33.92
54290;BME280;40196;39.774;2.728;2022-08-21T11:00:34;101036.88;;;31.93;34.31
54290;BME280;40196;39.774;2.728;2022-08-21T11:03:05;101047.28;;;32.01;34.96
54290;BME280;40196;39.774;2.728;2022-08-21T11:05:47;101030.94;;;32.07;33.51
54290;BME280;40196;39.774;2.728;2022-08-21T11:08:15;101035.28;;;32.02;33.04
54290;BME280;40196;39.774;2.728;2022-08-21T11:10:44;101030.72;;;32.18;33.34
54290;BME280;40196;39.774;2.728;2022-08-21T11:13:15;101027.97;;;32.23;33.86
54290;BME280;40196;39.774;2.728;2022-08-21T11:18:38;101038.59;;;32.15;33.59
54290;BME280;40196;39.774;2.728;2022-08-21T11:26:16;101037.50;;;32.11;37.00
54290;BME280;40196;39.774;2.728;2022-08-21T11:28:45;101040.50;;;32.14;36.84
54290;BME280;40196;39.774;2.728;2022-08-21T11:36:20;101041.47;;;31.82;38.04
54290;BME280;40196;39.774;2.728;2022-08-21T11:41:37;101030.94;;;32.12;38.18
54290;BME280;40196;39.774;2.728;2022-08-21T11:46:44;101026.34;;;32.43;38.38
54290;BME280;40196;39.774;2.728;2022-08-21T11:52:07;101019.56;;;32.56;40.40
54290;BME280;40196;39.774;2.728;2022-08-21T11:54:46;101004.56;;;32.64;40.35
54290;BME280;40196;39.774;2.728;2022-08-21T11:57:19;101002.63;;;32.74;39.91
54290;BME280;40196;39.774;2.728;2022-08-21T12:02:18;100990.91;;;32.79;39.73
54290;BME280;40196;39.774;2.728;2022-08-21T12:04:47;100984.88;;;32.87;38.76
54290;BME280;40196;39.774;2.728;2022-08-21T12:07:28;100975.88;;;32.87;39.27
54290;BME280;40196;39.774;2.728;2022-08-21T12:09:54;100967.41;;;32.83;37.91
54290;BME280;40196;39.774;2.728;2022-08-21T12:12:31;100969.28;;;32.88;39.28
54290;BME280;40196;39.774;2.728;2022-08-21T12:15:05;100965.72;;;32.92;39.25
54290;BME280;40196;39.774;2.728;2022-08-21T12:17:35;100967.09;;;33.10;37.18
54290;BME280;40196;39.774;2.728;2022-08-21T12:20:14;100969.78;;;33.20;38.19
54290;BME280;40196;39.774;2.728;2022-08-21T12:22:40;100969.22;;;33.29;39.64
54290;BME280;40196;39.774;2.728;2022-08-21T12:25:07;100964.31;;;33.26;39.48
54290;BME280;40196;39.774;2.728;2022-08-21T12:27:54;100957.72;;;33.32;39.87
54290;BME280;40196;39.774;2.728;2022-08-21T12:35:25;100959.00;;;33.50;39.31
54290;BME280;40196;39.774;2.728;2022-08-21T12:37:59;100963.47;;;33.25;39.71
54290;BME280;40196;39.774;2.728;2022-08-21T12:40:27;100959.31;;;33.43;39.58
54290;BME280;40196;39.774;2.728;2022-08-21T12:42:54;100960.94;;;33.44;40.29
54290;BME280;40196;39.774;2.728;2022-08-21T12:50:24;100953.00;;;33.48;40.14
54290;BME280;40196;39.774;2.728;2022-08-21T12:52:57;100949.88;;;33.80;40.27
54290;BME280;40196;39.774;2.728;2022-08-21T12:55:28;100951.31;;;34.07;39.52
54290;BME280;40196;39.774;2.728;2022-08-21T12:57:54;100952.81;;;34.28;38.10
54290;BME280;40196;39.774;2.728;2022-08-21T13:00:21;100950.38;;;34.27;38.03
54290;BME280;40196;39.774;2.728;2022-08-21T13:02:47;100949.59;;;34.21;38.60
54290;BME280;40196;39.774;2.728;2022-08-21T13:05:14;100949.53;;;34.31;37.42
54290;BME280;40196;39.774;2.728;2022-08-21T13:07:44;100950.16;;;34.52;38.15
54290;BME280;40196;39.774;2.728;2022-08-21T13:12:44;100947.72;;;34.16;38.31
54290;BME280;40196;39.774;2.728;2022-08-21T13:15:10;100953.19;;;34.51;38.39
54290;BME280;40196;39.774;2.728;2022-08-21T13:17:37;100949.75;;;34.35;37.66
54290;BME280;40196;39.774;2.728;2022-08-21T13:20:08;100932.78;;;34.67;37.51
54290;BME280;40196;39.774;2.728;2022-08-21T13:22:40;100934.66;;;34.96;37.49
54290;BME280;40196;39.774;2.728;2022-08-21T13:25:09;100933.06;;;35.19;36.84
54290;BME280;40196;39.774;2.728;2022-08-21T13:27:35;100925.53;;;35.49;35.57
54290;BME280;40196;39.774;2.728;2022-08-21T13:32:33;100915.69;;;36.05;35.96
54290;BME280;40196;39.774;2.728;2022-08-21T13:35:07;100913.78;;;36.38;35.38
54290;BME280;40196;39.774;2.728;2022-08-21T13:37:32;100911.78;;;36.58;35.35
54290;BME280;40196;39.774;2.728;2022-08-21T13:39:58;100914.25;;;37.01;34.95
54290;BME280;40196;39.774;2.728;2022-08-21T13:42:23;100907.13;;;37.27;33.78
54290;BME280;40196;39.774;2.728;2022-08-21T13:44:50;100905.25;;;37.64;33.38
54290;BME280;40196;39.774;2.728;2022-08-21T13:47:16;100906.72;;;38.07;33.56
54290;BME280;40196;39.774;2.728;2022-08-21T13:49:44;100907.38;;;38.35;32.56
54290;BME280;40196;39.774;2.728;2022-08-21T13:52:17;100905.09;;;38.60;31.34
54290;BME280;40196;39.774;2.728;2022-08-21T13:54:51;100900.63;;;38.41;32.13
54290;BME280;40196;39.774;2.728;2022-08-21T13:57:17;100900.41;;;39.00;31.37
54290;BME280;40196;39.774;2.728;2022-08-21T13:59:43;100896.28;;;39.55;30.50
54290;BME280;40196;39.774;2.728;2022-08-21T14:02:19;100895.94;;;39.74;30.26
54290;BME280;40196;39.774;2.728;2022-08-21T14:04:56;100890.09;;;39.76;30.69
54290;BME280;40196;39.774;2.728;2022-08-21T14:10:00;100885.91;;;39.70;30.92
54290;BME280;40196;39.774;2.728;2022-08-21T14:12:32;100874.69;;;39.49;31.67
54290;BME280;40196;39.774;2.728;2022-08-21T14:15:02;100876.97;;;39.90;30.68
54290;BME280;40196;39.774;2.728;2022-08-21T14:17:37;100872.56;;;40.07;30.61
54290;BME280;40196;39.774;2.728;2022-08-21T14:20:06;100874.66;;;40.57;29.99
54290;BME280;40196;39.774;2.728;2022-08-21T14:22:45;100870.53;;;41.31;28.79
54290;BME280;40196;39.774;2.728;2022-08-21T14:25:12;100876.34;;;41.93;28.20